Aviation Digital Data Service (ADDS)

Output produced by METARs form (0019 UTC 24 May 2022)
found at http://www.aviationweather.gov/metar/data/
 
KMAF 232329Z 2400/2424 16020G27KT P6SM BKN200 
     FM240100 14014KT P6SM BKN200 
     FM241000 18012KT P6SM BKN025 
     FM241500 24016KT P6SM SKC
       
KMBG 232323Z 2400/2424 20013G25KT P6SM BKN110 
     FM240300 14006KT P6SM BKN100 
     FM241500 16011G17KT P6SM BKN050
       
KMBS 232320Z 2400/2424 07008KT P6SM SKC 
     FM240200 02005KT P6SM SKC 
     FM241600 06008KT P6SM FEW060 SCT250
       
KMCB 231757Z 2318/2418 07006KT P6SM VCTS SCT025CB BKN030 
     TEMPO 2321/2401 4SM TSRA BKN025CB 
     FM240300 08005KT P6SM SCT020 BKN040 
     FM240600 VRB04KT P6SM SCT005 BKN015 
     FM241500 15008KT P6SM SCT025 BKN080
       
KMCC 232324Z 2400/2424 31009KT P6SM FEW250 
     FM240300 29005KT P6SM FEW250 
     FM241700 34011KT P6SM FEW250
       
KMCE 232320Z 2400/2424 33014G19KT P6SM SKC 
     FM240300 VRB04KT P6SM SKC
       
TAF AMD KMCF 232335Z 2323/2423 25009KT 9999 FEW028 SCT032 BKN035 QNH3000INS 
     TEMPO 2323/2401 10010G18KT 6000 -TSRA BKN020CB 
     BECMG 2401/2402 VRB06KT 9999 SCT018 BKN020 OVC025 QNH3005INS 
     TEMPO 2405/2409 12012G18KT 9000 -SHRA BKN009 OVC030 
     BECMG 2409/2410 16006KT 9999 SKC QNH3000INS TX32/2419Z TN23/2411Z
       
KMCI 232329Z 2400/2424 11010KT P6SM SCT090 
     FM240800 09007KT 6SM -SHRA BR OVC045 
     FM241100 08010G18KT 6SM -SHRA BR OVC028 
     FM242000 09012G18KT 5SM -RA BR OVC015
       
KMCK 232320Z 2400/2424 10011KT P6SM BKN040 
     FM240700 06007KT P6SM OVC028 
     FM241100 04008KT P6SM VCSH OVC015 
     FM241300 04010KT 4SM BR VCSH OVC008 
     FM241700 04013G21KT 3SM -SHRA BR OVC008
       
KMCN 232339Z 2400/2424 24008KT P6SM VCSH SCT040 OVC100 
     TEMPO 2400/2402 4SM TSRA BR OVC025CB 
     FM240400 00000KT P6SM BKN120 
     FM241100 00000KT 5SM BR BKN040 
     FM241400 22006KT P6SM SCT035 BKN050 
     FM241800 21007KT P6SM SCT035 BKN050 
     PROB30 2418/2424 4SM TSRA BR BKN040CB
       
KMCO 232336Z 2400/2506 11011KT P6SM FEW050 
     FM240200 VRB04KT P6SM FEW050 
     FM241500 13010KT P6SM SCT040 SCT250 
     FM250200 11004KT P6SM FEW050 SCT250
       
KMCW 232325Z 2400/2424 08011G17KT P6SM FEW100 
     FM240200 12008KT P6SM SCT100 
     FM242200 12011KT 6SM -SHRA BR OVC050
       
KMDT 232321Z 2400/2424 33004KT P6SM VCSH SCT060 OVC100 
     FM241200 13004KT P6SM VCSH SCT025 OVC040
       
KMDW 232330Z 2400/2506 02011KT P6SM FEW060 OVC150 
     FM240300 04007KT P6SM FEW060 BKN150 
     FM241400 08011G17KT P6SM SCT070 BKN150
       
KMEI 232344Z 2400/2424 11004KT P6SM VCTS SCT025CB SCT050 
     FM240300 04004KT P6SM VCSH BKN020 
     FM241000 VRB04KT P6SM BKN005 
     FM241800 16009KT 6SM BR VCTS SCT070CB 
     FM242300 16008KT 6SM BR BKN090
       
KMEM 232331Z 2400/2506 04010KT P6SM OVC025 
     FM240100 05009KT P6SM BKN035 OVC050 
     FM240900 07007KT P6SM OVC030 
     FM241700 12010KT P6SM BKN035 OVC050 
     FM242000 14012G18KT P6SM VCTS OVC035CB 
     FM250200 15012KT P6SM OVC030
       
KMER 232320Z 2400/2424 31014G18KT P6SM SKC 
     FM240300 VRB04KT P6SM SKC
       
KMEV 240004Z 2400/2424 29007KT P6SM SCT250 
     FM240400 VRB03KT P6SM SKC 
     FM241900 32005KT P6SM FEW250
       
KMFE 232320Z 2400/2424 12015G23KT P6SM BKN100 
     FM240300 13013KT P6SM BKN070 
     FM240600 14011KT P6SM VCTS BKN045CB 
     PROB30 2409/2410 4SM TSRA BR OVC025CB 
     FM241000 13011KT P6SM BKN020 
     PROB30 2410/2413 4SM TSRA BR OVC015CB 
     FM241500 14017G25KT P6SM BKN045
       
KMFR 232320Z 2400/2424 34011KT P6SM SKC 
     FM240400 VRB02KT P6SM SKC 
     FM242000 33007KT P6SM SCT070
       
TAF KMGE 232115Z 2321/2503 27012KT 9999 VCSH BKN015 BKN025 BKN080 BKN150 BKN200
QNH3000INS 
     TEMPO 2321/2322 29015G25KT 510004 
     BECMG 2321/2322 29012KT 9999 NSW SCT020 SCT050 BKN200 BKN250 QNH3002INS 
     BECMG 2406/2407 29007KT 4800 BR OVC006 QNH3005INS 
     BECMG 2412/2413 30009KT 8000 BR BKN008 OVC018 QNH3007INS 
     BECMG 2414/2415 28009KT 9999 NSW BKN018 BKN030 BKN120 BKN200 QNH3005INS 
     BECMG 2416/2417 23012KT 9999 VCTS SCT035CB BKN100 BKN200 QNH3004INS 
     BECMG 2423/2424 20007KT 9999 NSW FEW040 BKN100 BKN200 QNH3003INS TX27/2421Z
TN17/2412Z LAST NO AMDS AFT 2403 NEXT 2410
       
KMGM 232340Z 2400/2424 VRB04KT P6SM BKN250 
     FM240400 00000KT P6SM OVC090 
     FM241200 VRB04KT P6SM OVC035 
     FM241600 14005KT P6SM BKN035 
     PROB30 2416/2421 4SM SHRA BR OVC025
       
KMGW 232323Z 2400/2424 05004KT P6SM OVC050 
     FM240400 09003KT P6SM OVC030 
     FM241400 12005KT P6SM BKN025 
     FM242100 11007KT P6SM SCT025
       
KMHK 232320Z 2400/2424 10008KT P6SM BKN090 
     FM240500 09006KT P6SM VCSH BKN060 
     FM240800 08006KT 6SM -SHRA BR OVC030 
     FM241000 08009KT 4SM SHRA BR OVC015 
     FM241200 07008KT 3SM SHRA BR OVC008
       
KMHR 232324Z 2400/2424 31011KT P6SM FEW250 
     FM240400 26006KT P6SM FEW250 
     FM241700 34010KT P6SM FEW250
       
KMHT 232327Z 2400/2424 01004KT P6SM SCT200 
     FM241500 09007KT P6SM BKN150
       
KMIA 232320Z 2400/2506 11014G22KT P6SM SCT025 SCT250 
     FM240200 11009KT P6SM FEW020 SCT250 
     FM241400 12013KT P6SM SCT025
       
TAF KMIB 231700Z 2317/2423 22010G15KT 9999 BKN100 QNH3004INS 
     BECMG 2318/2319 22009KT 9999 BKN100 QNH3000INS 
     BECMG 2406/2407 VRB06KT 4800 BR BKN060 QNH2999INS 
     BECMG 2415/2416 18009KT 9999 NSW FEW200 QNH2996INS TX17/2320Z TN07/2411Z
       
KMIV 232321Z 2400/2424 VRB03KT P6SM OVC080 
     FM240900 07006KT P6SM -SHRA OVC045 
     FM241400 09010KT P6SM OVC045 
     FM242100 10008KT P6SM BKN080
       
KMKE 232339Z 2400/2506 04007KT P6SM BKN130 
     FM241400 08006KT P6SM SCT150 
     FM241600 09008KT P6SM SCT150 
     FM242000 06009KT P6SM BKN200 
     FM242300 04009KT P6SM BKN200
       
KMKL 232331Z 2400/2424 02009KT P6SM OVC025 
     FM240100 05003KT P6SM BKN035 OVC050 
     FM240900 07003KT P6SM OVC030 
     FM241700 12007KT P6SM BKN035 OVC050 
     FM242100 14007KT P6SM VCTS OVC035CB
       
KMKT 232320Z 2400/2424 13009KT P6SM BKN200 
     FM241500 14009KT P6SM SCT250 
     FM241900 12011KT P6SM SCT045 BKN090 
     FM242200 12011KT P6SM BKN080
       
KMLB 232336Z 2400/2424 12014G22KT P6SM FEW035 
     FM240200 14007KT P6SM FEW025 
     FM241400 12012KT P6SM SCT030 
     FM241600 12014G20KT P6SM SCT035
       
KMLI 232320Z 2400/2424 09008KT P6SM BKN150 
     FM242100 09012G20KT P6SM OVC090
       
KMLS 232320Z 2400/2424 08006KT P6SM VCSH FEW070 BKN100 
     FM240300 14006KT P6SM FEW100 
     FM240600 17007KT P6SM SCT090
       
KMLU 232339Z 2400/2424 04005KT P6SM BKN015 
     FM241000 07003KT P6SM OVC007 
     FM241500 13007KT P6SM OVC015 
     FM241700 15009KT P6SM BKN025 
     FM241900 18010KT P6SM VCTS BKN030CB AMD NOT SKED
       
KMMH 240004Z 2400/2424 02012G18KT P6SM SCT250 
     FM240300 28008KT P6SM SKC 
     FM242100 25010KT P6SM SKC
       
TAF AMD KMMT 232339Z 2323/2505 20015G25KT 8000 -SHRA BKN024 510103 QNH3003INS 
     TEMPO 2323/2404 VRB30G40KT 4800 -TSRA BKN024CB OVC040 
     BECMG 2404/2405 18009KT 8000 -SHRA BKN016 510103 QNH3005INS 
     TEMPO 2404/2407 22020G25KT 8000 -TSRA BKN016CB OVC024 
     BECMG 2407/2408 19006KT 8000 -SHRA BKN009 510103 QNH3004INS 
     TEMPO 2407/2412 VRB25G35KT 8000 -TSRA BKN002CB OVC009 
     BECMG 2415/2416 26012KT 9999 NSW FEW017 QNH3008INS TX26/2418Z TN19/2405Z
       
KMOB 232337Z 2400/2424 03004KT P6SM VCSH SCT023 BKN170 
     FM240400 10005KT P6SM VCSH SCT020 OVC100 
     FM241400 12009KT P6SM VCSH SCT035 BKN120 
     PROB30 2415/2421 4SM TSRA OVC025CB
       
KMOD 232324Z 2400/2424 33012G20KT P6SM FEW250 
     FM240300 30008KT P6SM FEW250 
     FM241700 32010G17KT P6SM FEW250
       
KMOT 232338Z 2400/2424 VRB04KT P6SM FEW050 
     FM240600 21008KT P6SM FEW050 
     FM241900 16011KT P6SM SCT090
       
KMPV 232321Z 2400/2424 VRB03KT P6SM FEW200
       
KMQY 232347Z 2400/2424 01007KT P6SM SCT020 OVC025 
     FM240200 03005KT P6SM OVC020 
     FM240900 00000KT 6SM BR OVC025 
     FM241400 09004KT P6SM BKN050 
     FM241700 09005KT P6SM SCT050
       
KMRY 232355Z 2400/2424 30011KT P6SM SKC 
     FM240300 23006KT P6SM SKC 
     FM241000 VRB03KT P6SM FEW010 
     FM241900 29007KT P6SM SKC
       
KMRB 232321Z 2400/2424 36004KT 6SM -RA SCT035 OVC050 
     FM240300 00000KT 5SM -RA BR BKN025 OVC050 
     FM240600 00000KT 5SM BR SCT008 OVC015 
     FM241500 11005KT P6SM VCSH SCT008 BKN015 OVC050 
     FM241800 10005KT 6SM BR SCT008 OVC010 
     FM242200 10004KT P6SM OVC020
       
KMSL 232320Z 2400/2424 02006KT P6SM SCT015 BKN025 
     FM240900 00000KT 4SM BR SCT007 OVC015 
     TEMPO 2409/2413 2SM BR 
     FM241400 14006KT P6SM SCT015 BKN025 
     FM241600 16008KT P6SM SCT030 BKN080 
     FM242000 16010KT P6SM VCTS SCT030CB BKN080
       
KMSO 240017Z 2400/2424 33010KT P6SM VCSH BKN070 BKN100 
     TEMPO 2400/2402 22015G30KT -SHRA 
     FM240200 34006KT P6SM BKN100 
     FM240600 33003KT P6SM VCSH BKN050 OVC070 
     FM241400 VRB03KT P6SM BKN070 
     FM242100 25008G14KT P6SM BKN100
       
KMSN 232339Z 2400/2424 10006KT P6SM SCT060 BKN150 
     FM240500 09003KT P6SM BKN150 
     FM241300 08004KT P6SM FEW045 SCT150 
     FM241800 10007KT P6SM SCT050 BKN080
       
KMSP 232320Z 2400/2506 14008KT P6SM BKN080 
     FM240400 14007KT P6SM SCT150 BKN250 
     FM241500 14006KT P6SM SCT250 
     FM242200 12009KT P6SM BKN250 
     FM250300 11008KT P6SM BKN080
       
KMSS 232321Z 2400/2424 VRB03KT P6SM SCT250
       
KMSY 231757Z 2318/2424 14010G18KT P6SM VCSH SCT030 BKN110 
     TEMPO 2320/2324 4SM TSRA BR BKN025CB 
     FM240000 13006KT P6SM VCTS SCT035CB BKN100 
     FM240300 VRB05KT P6SM SCT025 BKN035 
     FM240900 VRB04KT P6SM BKN020 OVC035 
     FM241300 14008KT P6SM FEW025 SCT100 
     FM241700 18012KT P6SM SCT100
       
TAF KMTC 231700Z 2317/2423 04012KT 9999 FEW060 BKN170 QNH3032INS 
     BECMG 2400/2401 04006KT 9999 FEW035 QNH3030INS 
     BECMG 2412/2413 04009KT 9999 SKC QNH3024INS TX18/2417Z TN07/2410Z
       
KMTH 232325Z 2400/2424 10009G18KT P6SM SCT025 
     FM240300 09010G17KT P6SM VCSH SCT025
       
KMTJ 232344Z 2400/2424 32013KT P6SM SCT120 BKN200 
     FM240100 28008KT P6SM SCT120 BKN200 
     FM240200 15007KT P6SM SCT100 BKN200 
     FM242000 32014G25KT P6SM SCT100
       
KMTN 232321Z 2400/2424 VRB03KT P6SM SCT060 OVC130 
     FM240400 VRB03KT 6SM -RA SCT035 BKN050 OVC100 
     FM240900 06005KT 5SM -RA BR SCT025 OVC035 
     FM241300 08008KT P6SM VCSH SCT025 OVC050 
     FM242300 08006KT P6SM SCT050 BKN080 AMD NOT SKED
       
KMTW 232320Z 2400/2424 VRB03KT P6SM BKN200 
     FM241500 10008KT P6SM SCT050
       
TAF KMUO 231800Z 2318/2424 32012G18KT 9999 SCT120 QNH2999INS 
     TEMPO 2320/2401 32015G25KT BKN100 BKN200 510009 
     BECMG 2401/2402 VRB06KT 9999 FEW100 QNH3000INS 
     BECMG 2414/2415 31012G18KT 9999 BKN180 QNH2996INS 
     BECMG 2417/2418 32015G25KT 9999 BKN150 510009 QNH2997INS TX20/2323Z
TN06/2412Z
       
KMWH 232334Z 2400/2424 32011G19KT P6SM VCSH BKN070 BKN110 
     FM240200 32014G22KT P6SM SKC 
     FM240700 32006KT P6SM FEW250 
     FM241300 VRB03KT P6SM BKN250 
     FM241900 18008KT P6SM SCT150 BKN200
       
TAF KMXF 231900Z 2319/2501 VRB06KT 9999 VCSH SCT020 SCT080 QNH3000INS 
     BECMG 2400/2401 VRB06KT 4800 -RA BR SCT040 QNH3002INS 
     BECMG 2406/2407 VRB06KT 1600 BR OVC002 QNH2999INS 
     BECMG 2413/2414 VRB06KT 4800 BR SCT005 OVC010 QNH2999INS 
     BECMG 2416/2417 12010G20KT 8000 -SHRA VCTS BKN010CB OVC050 QNH2996INS 
     TEMPO 2417/2501 18015G25KT 4800 -TSRA OVC007CB TX30/2321Z TN21/2411Z LAST
NO AMDS AFT 2403 NEXT 2411
       
KMYL 232332Z 2400/2424 35006KT P6SM VCSH BKN070 
     TEMPO 2400/2404 -SHRA BKN035 
     FM240700 VRB05KT P6SM SCT035 BKN150
       
KMYR 232320Z 2400/2424 18012KT P6SM BKN130 
     FM240300 18006KT P6SM -RA BKN050 
     FM240900 18005KT P6SM BKN050 
     FM241300 20008KT P6SM BKN060 
     FM241800 19012G19KT P6SM BKN040